createdAt,value
2018-06-01T00:01:27.155Z,22
2018-06-01T00:11:28.937Z,22
2018-06-01T00:21:27.450Z,22
2018-06-01T00:31:26.367Z,22
2018-06-01T00:41:27.508Z,22
2018-06-01T00:51:26.184Z,22
2018-06-01T01:01:28.558Z,22
2018-06-01T01:11:28.212Z,22
2018-06-01T01:21:26.718Z,22
2018-06-01T01:31:27.429Z,22
2018-06-01T01:41:26.503Z,21
2018-06-01T01:51:27.474Z,21
2018-06-01T02:01:26.994Z,21
2018-06-01T02:11:28.035Z,21
2018-06-01T02:21:29.994Z,21
2018-06-01T02:31:28.228Z,21
2018-06-01T02:41:29.146Z,21
2018-06-01T02:51:28.356Z,21
2018-06-01T03:01:27.618Z,20
2018-06-01T03:11:26.397Z,21
2018-06-01T03:21:28.070Z,21
2018-06-01T03:31:29.377Z,20
2018-06-01T03:41:27.259Z,21
2018-06-01T03:51:28.796Z,21
2018-06-01T04:01:26.603Z,20
2018-06-01T04:11:26.734Z,20
2018-06-01T04:21:28.280Z,21
2018-06-01T04:31:26.954Z,21
2018-06-01T04:41:28.046Z,21
2018-06-01T04:51:30.076Z,21
2018-06-01T05:01:27.044Z,21
2018-06-01T05:11:28.584Z,22
2018-06-01T05:21:26.691Z,22
2018-06-01T05:31:26.441Z,22
2018-06-01T05:41:26.531Z,22
2018-06-01T05:51:26.229Z,22
2018-06-01T06:01:27.228Z,22
2018-06-01T06:11:27.357Z,23
2018-06-01T06:21:27.525Z,23
2018-06-01T06:31:26.577Z,23
2018-06-01T06:41:27.179Z,23
2018-06-01T06:51:26.755Z,24
2018-06-01T07:01:27.416Z,24
2018-06-01T07:11:28.783Z,24
2018-06-01T07:21:27.478Z,24
2018-06-01T07:31:26.661Z,24
2018-06-01T07:41:26.400Z,25
2018-06-01T07:51:27.687Z,25
2018-06-01T08:01:26.550Z,25
2018-06-01T08:11:28.028Z,26
2018-06-01T08:21:28.024Z,26
2018-06-01T08:31:27.014Z,26
2018-06-01T08:41:28.309Z,27
2018-06-01T08:51:27.060Z,26
2018-06-01T09:01:27.112Z,26
2018-06-01T09:11:26.921Z,27
2018-06-01T09:21:27.120Z,27
2018-06-01T09:31:27.023Z,28
2018-06-01T09:41:27.183Z,27
2018-06-01T09:51:28.630Z,28
2018-06-01T10:01:29.338Z,28
2018-06-01T10:11:27.658Z,28
2018-06-01T10:21:27.713Z,28
2018-06-01T10:31:26.611Z,29
2018-06-01T10:41:27.298Z,29
2018-06-01T10:51:26.415Z,29
2018-06-01T11:01:26.610Z,28
2018-06-01T11:11:26.410Z,28
2018-06-01T11:21:26.961Z,28
2018-06-01T11:31:27.002Z,29
2018-06-01T11:41:27.399Z,29
2018-06-01T11:51:32.334Z,29
2018-06-01T12:01:26.221Z,29
2018-06-01T12:11:28.330Z,30
2018-06-01T12:21:26.530Z,30
2018-06-01T12:31:27.332Z,30
2018-06-01T12:41:27.325Z,30
2018-06-01T12:51:26.875Z,30
2018-06-01T13:01:26.846Z,30
2018-06-01T13:11:27.358Z,30
2018-06-01T13:21:27.641Z,30
2018-06-01T13:31:26.773Z,30
2018-06-01T13:41:26.717Z,30
2018-06-01T13:51:26.834Z,30
2018-06-01T14:01:27.786Z,30
2018-06-01T14:11:29.385Z,30
2018-06-01T14:21:28.263Z,30
2018-06-01T14:31:27.717Z,30
2018-06-01T14:41:26.714Z,30
2018-06-01T14:51:27.986Z,30
2018-06-01T15:01:27.043Z,30
2018-06-01T15:11:26.926Z,30
2018-06-01T15:21:26.459Z,30
2018-06-01T15:31:26.552Z,30
2018-06-01T15:41:26.781Z,30
2018-06-01T15:51:28.084Z,29
2018-06-01T16:01:26.994Z,29
2018-06-01T16:11:27.047Z,29
2018-06-01T16:21:29.936Z,29
2018-06-01T16:31:28.099Z,28
2018-06-01T16:41:27.425Z,28
2018-06-01T16:51:26.633Z,27
2018-06-01T17:01:26.631Z,28
2018-06-01T17:11:26.609Z,27
2018-06-01T17:21:27.135Z,27
2018-06-01T17:31:27.295Z,26
2018-06-01T17:41:26.333Z,27
2018-06-01T17:51:26.124Z,26
2018-06-01T18:01:27.758Z,26
2018-06-01T18:11:26.600Z,26
2018-06-01T18:21:27.293Z,25
2018-06-01T18:31:26.491Z,25
2018-06-01T18:41:27.310Z,24
2018-06-01T18:51:26.787Z,23
2018-06-01T19:01:26.759Z,23
2018-06-01T19:11:26.862Z,23
2018-06-01T19:21:27.203Z,23
2018-06-01T19:31:27.739Z,23
2018-06-01T19:41:27.608Z,23
2018-06-01T19:51:26.671Z,23
2018-06-01T20:01:27.173Z,22
2018-06-01T20:11:29.526Z,22
2018-06-01T20:21:26.788Z,22
2018-06-01T20:31:27.175Z,22
2018-06-01T20:41:27.326Z,22
2018-06-01T20:51:26.841Z,22
2018-06-01T21:01:26.813Z,22
2018-06-01T21:11:28.703Z,22
2018-06-01T21:21:27.272Z,22
2018-06-01T21:31:27.442Z,22
2018-06-01T21:41:26.365Z,22
2018-06-01T21:51:27.917Z,22
2018-06-01T22:01:27.702Z,22
2018-06-01T22:11:28.881Z,22
2018-06-01T22:21:27.236Z,22
2018-06-01T22:31:27.948Z,22
2018-06-01T22:41:27.719Z,22
2018-06-01T22:51:26.155Z,22
2018-06-01T23:01:27.352Z,21
2018-06-01T23:11:27.637Z,21
2018-06-01T23:21:27.067Z,22
2018-06-01T23:31:26.940Z,22
2018-06-01T23:41:27.329Z,22
2018-06-01T23:51:26.518Z,21
